Time;durP1;ratioP1;P1;durP2;ratioP2;P2;SDS_P1;SDS_P2;PMS_P1;PMS_P2;Temp;Humidity;BMP_temperature;BMP_pressure;BME280_temperature;BME280_humidity;BME280_pressure;Samples;Min_cycle;Max_cycle;Signal;HPM_P1;HPM_P2
2023/03/15 00:01:23;;;;;;;13.50;4.90;;;;;;;2.64;73.50;99348.98;131794;1253;113276;-67
2023/03/15 00:04:27;;;;;;;14.20;4.20;;;;;;;2.64;73.49;99353.39;131443;1253;114383;-69
2023/03/15 00:07:30;;;;;;;9.30;4.70;;;;;;;2.67;73.77;99358.94;131602;1253;129508;-67
2023/03/15 00:10:33;;;;;;;9.80;4.30;;;;;;;2.68;73.79;99357.84;131685;1253;115237;-67
2023/03/15 00:13:36;;;;;;;9.60;4.30;;;;;;;2.68;73.67;99364.02;131653;1256;114677;-67
2023/03/15 00:16:38;;;;;;;8.80;3.90;;;;;;;2.68;73.93;99370.89;131692;1253;114694;-73
2023/03/15 00:19:41;;;;;;;12.80;4.70;;;;;;;2.68;73.68;99375.84;131685;1257;115289;-67
2023/03/15 00:22:45;;;;;;;14.00;4.40;;;;;;;2.66;73.84;99374.48;131734;1253;114649;-67
2023/03/15 00:25:49;;;;;;;10.00;3.80;;;;;;;2.65;73.78;99373.14;131649;1254;113453;-68
2023/03/15 00:28:52;;;;;;;16.40;4.40;;;;;;;2.62;73.89;99378.33;131657;1258;114657;-66
2023/03/15 00:31:55;;;;;;;13.30;4.30;;;;;;;2.59;73.72;99390.03;131688;1253;114034;-67
2023/03/15 00:34:58;;;;;;;14.20;4.20;;;;;;;2.57;73.92;99400.30;131709;1254;114742;-67
2023/03/15 00:38:03;;;;;;;11.40;3.90;;;;;;;2.56;73.83;99407.58;131759;1253;115448;-65
2023/03/15 00:41:09;;;;;;;10.40;4.00;;;;;;;2.54;73.84;99416.80;131979;1253;114745;-67
2023/03/15 00:44:12;;;;;;;12.30;4.20;;;;;;;2.53;74.08;99423.72;132013;1254;114695;-69
2023/03/15 00:47:17;;;;;;;7.50;3.10;;;;;;;2.50;73.84;99426.61;131890;1253;114705;-66
2023/03/15 00:50:21;;;;;;;7.20;2.90;;;;;;;2.50;74.08;99438.96;131986;1253;114154;-68
2023/03/15 00:53:24;;;;;;;15.20;4.10;;;;;;;2.49;73.87;99447.10;131960;1253;128144;-68
2023/03/15 00:56:28;;;;;;;9.20;2.60;;;;;;;2.48;74.02;99445.38;131916;1254;114479;-68
2023/03/15 00:59:33;;;;;;;9.10;2.50;;;;;;;2.47;73.99;99454.57;131490;1254;114464;-71
2023/03/15 01:02:36;;;;;;;9.40;3.00;;;;;;;2.46;74.05;99459.20;131681;1254;114565;-66
2023/03/15 01:05:40;;;;;;;9.80;2.70;;;;;;;2.44;74.01;99463.29;131640;1253;114807;-67
2023/03/15 01:08:44;;;;;;;8.20;2.90;;;;;;;2.43;73.95;99469.99;131854;1253;129618;-70
2023/03/15 01:11:47;;;;;;;9.60;3.00;;;;;;;2.41;73.93;99470.94;131805;1253;115381;-67
2023/03/15 01:14:50;;;;;;;9.30;2.90;;;;;;;2.40;73.94;99470.98;131912;1254;114654;-67
2023/03/15 01:17:53;;;;;;;11.00;2.90;;;;;;;2.38;73.92;99471.23;131954;1253;114726;-67
2023/03/15 01:20:56;;;;;;;11.00;2.60;;;;;;;2.38;74.16;99475.46;131887;1253;114729;-67
2023/03/15 01:24:03;;;;;;;14.70;2.20;;;;;;;2.36;74.21;99479.71;131856;1257;128863;-67
2023/03/15 01:27:06;;;;;;;9.60;3.00;;;;;;;2.35;73.97;99479.92;131412;1254;691755;-67
2023/03/15 01:30:10;;;;;;;13.10;3.00;;;;;;;2.35;74.03;99486.80;131815;1254;114610;-70
2023/03/15 01:33:13;;;;;;;13.40;3.20;;;;;;;2.35;74.17;99489.98;131863;1253;113132;-70
2023/03/15 01:36:17;;;;;;;12.20;2.80;;;;;;;2.33;73.78;99492.14;132065;1254;114064;-68
2023/03/15 01:39:20;;;;;;;10.30;2.00;;;;;;;2.33;73.90;99496.04;131756;1253;126768;-66
2023/03/15 01:42:23;;;;;;;12.30;3.00;;;;;;;2.31;74.17;99499.44;131652;1254;113243;-67
2023/03/15 01:46:03;;;;;;;10.10;2.60;;;;;;;2.30;73.89;99499.30;131691;1253;114723;-67
2023/03/15 01:49:21;;;;;;;10.20;2.10;;;;;;;2.28;74.07;99503.56;129731;1253;113847;-67
2023/03/15 01:52:29;;;;;;;13.20;2.40;;;;;;;2.27;73.96;99504.14;131938;1253;114537;-69
2023/03/15 01:55:32;;;;;;;7.90;2.40;;;;;;;2.25;73.83;99514.03;131979;1253;127870;-70
2023/03/15 01:58:36;;;;;;;12.70;2.70;;;;;;;2.23;73.87;99524.48;132082;1253;113796;-67
2023/03/15 02:01:44;;;;;;;8.60;1.90;;;;;;;2.21;73.76;99531.07;132047;1253;113154;-70
2023/03/15 02:04:54;;;;;;;10.70;3.00;;;;;;;2.19;73.44;99536.77;131760;1254;113510;-66
2023/03/15 02:07:57;;;;;;;10.70;2.30;;;;;;;2.18;73.83;99540.15;131941;1253;113123;-69
2023/03/15 02:11:03;;;;;;;9.60;1.90;;;;;;;2.16;73.52;99554.98;131886;1253;128051;-67
2023/03/15 02:14:07;;;;;;;11.80;3.30;;;;;;;2.14;73.58;99557.88;131762;1254;115184;-66
2023/03/15 02:17:11;;;;;;;12.80;3.30;;;;;;;2.12;73.55;99563.90;131772;1253;113660;-69
2023/03/15 02:20:34;;;;;;;11.20;2.30;;;;;;;2.10;73.70;99567.31;131914;1254;113247;-67
2023/03/15 02:23:53;;;;;;;8.20;2.60;;;;;;;2.06;73.66;99569.70;132707;1254;114042;-73
2023/03/15 02:26:57;;;;;;;7.80;2.20;;;;;;;2.02;73.48;99572.27;131908;1253;128028;-69
2023/03/15 02:30:02;;;;;;;12.60;2.50;;;;;;;2.00;73.42;99571.63;131920;1254;114700;-67
2023/03/15 02:33:10;;;;;;;11.80;2.60;;;;;;;1.99;73.47;99571.14;131699;1254;113191;-66
2023/03/15 02:36:19;;;;;;;8.30;2.40;;;;;;;1.98;73.54;99575.91;131924;1253;113256;-67
2023/03/15 02:39:23;;;;;;;9.90;2.20;;;;;;;1.98;73.69;99588.92;131901;1254;113194;-68
2023/03/15 02:42:27;;;;;;;21.80;2.60;;;;;;;1.98;73.69;99594.74;131682;1254;126710;-68
2023/03/15 02:45:32;;;;;;;;;;;;;;;1.98;73.44;99601.09;131899;1254;113186;-67
2023/03/15 02:48:37;;;;;;;13.40;2.30;;;;;;;1.95;73.54;99606.62;132029;1253;113893;-66
2023/03/15 02:51:39;;;;;;;12.80;2.50;;;;;;;1.91;73.33;99611.29;131909;1254;113856;-66
2023/03/15 02:54:42;;;;;;;11.30;2.40;;;;;;;1.88;73.41;99620.52;131772;1253;114655;-68
2023/03/15 02:57:45;;;;;;;13.70;2.60;;;;;;;1.84;73.39;99618.85;131768;1256;114684;-73
2023/03/15 03:00:48;;;;;;;10.20;2.10;;;;;;;1.81;73.34;99631.45;131751;1253;114715;-68
2023/03/15 03:03:51;;;;;;;10.20;2.10;;;;;;;1.77;73.45;99637.34;131725;1254;114667;-66
2023/03/15 03:06:55;;;;;;;14.80;2.60;;;;;;;1.74;73.52;99640.77;131917;1253;114773;-71
2023/03/15 03:09:57;;;;;;;11.50;2.40;;;;;;;1.72;73.64;99641.69;131799;1254;114735;-69
2023/03/15 03:13:01;;;;;;;9.70;2.40;;;;;;;1.71;73.67;99641.19;131791;1254;114714;-67
2023/03/15 03:16:05;;;;;;;15.30;3.20;;;;;;;1.69;73.62;99635.77;131784;1259;116930;-66
2023/03/15 03:19:13;;;;;;;12.00;1.60;;;;;;;1.66;73.58;99635.29;132654;1254;114713;-67
2023/03/15 03:22:18;;;;;;;14.80;2.20;;;;;;;1.64;73.82;99638.70;129974;1254;114549;-66
2023/03/15 03:25:21;;;;;;;;;;;;;;;1.62;73.51;99654.23;131831;1254;113216;-66
2023/03/15 03:28:26;;;;;;;14.60;2.30;;;;;;;1.60;73.95;99658.16;131783;1253;114751;-66
2023/03/15 03:31:32;;;;;;;12.80;2.40;;;;;;;1.56;73.59;99657.54;131753;1254;115167;-69
2023/03/15 03:34:35;;;;;;;12.60;1.90;;;;;;;1.54;73.54;99660.60;131695;1258;114674;-75
2023/03/15 03:37:38;;;;;;;15.10;2.40;;;;;;;1.52;73.33;99664.33;131663;1259;114692;-66
2023/03/15 03:40:41;;;;;;;9.60;2.60;;;;;;;1.50;73.72;99673.70;131632;1253;113984;-71
2023/03/15 03:43:44;;;;;;;19.90;2.40;;;;;;;1.48;73.72;99682.36;131573;1258;114680;-70
2023/03/15 03:46:47;;;;;;;13.50;3.10;;;;;;;1.47;73.79;99686.78;131657;1259;114700;-66
2023/03/15 03:49:50;;;;;;;9.20;2.20;;;;;;;1.47;73.79;99695.24;131714;1258;115209;-77
2023/03/15 03:52:53;;;;;;;10.30;2.30;;;;;;;1.46;73.93;99699.30;131712;1254;114646;-73
2023/03/15 03:55:55;;;;;;;12.20;2.10;;;;;;;1.46;73.85;99700.20;131788;1259;114715;-76
2023/03/15 03:58:58;;;;;;;8.60;2.50;;;;;;;1.45;73.90;99696.16;131609;1254;114678;-71
2023/03/15 04:02:01;;;;;;;9.50;2.30;;;;;;;1.44;73.90;99691.95;131670;1259;128044;-67
2023/03/15 04:05:05;;;;;;;11.00;2.70;;;;;;;1.44;73.86;99690.71;131823;1259;114476;-65
2023/03/15 04:08:07;;;;;;;9.00;2.30;;;;;;;1.43;73.79;99698.48;131996;1258;114773;-66
2023/03/15 04:11:11;;;;;;;15.90;2.60;;;;;;;1.42;73.77;99700.79;132018;1254;114018;-72
2023/03/15 04:14:14;;;;;;;17.90;2.40;;;;;;;1.42;73.96;99703.95;131902;1254;114706;-68
2023/03/15 04:17:17;;;;;;;16.00;2.70;;;;;;;1.41;74.03;99700.11;131824;1253;114445;-70
2023/03/15 04:20:28;;;;;;;15.00;2.30;;;;;;;1.39;73.99;99694.36;132009;1258;114657;-67
2023/03/15 04:23:36;;;;;;;10.20;2.30;;;;;;;1.38;73.78;99702.64;130000;1258;114326;-65
2023/03/15 04:26:38;;;;;;;12.70;2.70;;;;;;;1.34;73.96;99702.89;131993;1254;113138;-67
2023/03/15 04:29:45;;;;;;;14.40;2.50;;;;;;;1.34;73.95;99710.27;129597;1257;114652;-64
2023/03/15 04:33:02;;;;;;;11.80;4.00;;;;;;;1.32;73.90;99717.56;129678;1258;128785;-67
2023/03/15 04:36:17;;;;;;;12.40;2.70;;;;;;;1.29;73.88;99729.05;129531;1258;115376;-66
2023/03/15 04:39:20;;;;;;;10.60;3.40;;;;;;;1.25;73.76;99737.40;131609;1260;114688;-65
2023/03/15 04:42:26;;;;;;;8.60;2.80;;;;;;;1.22;74.06;99747.30;131769;1260;114538;-65
2023/03/15 04:45:32;;;;;;;13.50;2.40;;;;;;;1.20;73.99;99758.77;129764;1261;114384;-66
2023/03/15 04:48:37;;;;;;;11.80;3.10;;;;;;;1.18;73.93;99761.63;129187;1256;127890;-66
2023/03/15 04:51:40;;;;;;;11.80;3.50;;;;;;;1.17;73.75;99760.95;131495;1260;113203;-65
2023/03/15 04:54:43;;;;;;;16.40;3.00;;;;;;;1.16;73.74;99760.27;131518;1256;114858;-68
2023/03/15 04:57:46;;;;;;;14.50;2.80;;;;;;;1.16;73.88;99763.78;131513;1256;113149;-66
2023/03/15 05:00:52;;;;;;;12.50;2.60;;;;;;;1.15;73.85;99770.13;128480;1256;115363;-66
2023/03/15 05:04:00;;;;;;;12.50;3.00;;;;;;;1.15;73.77;99770.86;129432;1257;127929;-66
2023/03/15 05:07:07;;;;;;;11.60;2.60;;;;;;;1.13;73.69;99773.86;131808;1258;113570;-65
2023/03/15 05:10:14;;;;;;;14.20;2.20;;;;;;;1.13;73.77;99784.94;129768;1257;114076;-67
2023/03/15 05:13:21;;;;;;;6.40;2.00;;;;;;;1.13;74.07;99784.95;129628;1260;113393;-65
2023/03/15 05:16:30;;;;;;;9.60;2.60;;;;;;;1.13;73.95;99789.33;129646;1258;113154;-65
2023/03/15 05:19:36;;;;;;;18.40;2.30;;;;;;;1.14;73.75;99790.38;129836;1260;127825;-68
2023/03/15 05:22:41;;;;;;;13.50;2.40;;;;;;;1.14;74.03;99798.30;129879;1257;114718;-69
2023/03/15 05:25:52;;;;;;;;;;;;;;;1.15;74.01;99803.90;130015;1256;114788;-69
2023/03/15 05:29:02;;;;;;;10.90;2.20;;;;;;;1.16;73.83;99811.45;130049;1253;114229;-70
2023/03/15 05:32:09;;;;;;;17.10;2.60;;;;;;;1.17;74.06;99821.61;130202;1254;114057;-65
2023/03/15 05:35:14;;;;;;;13.30;2.80;;;;;;;1.20;73.94;99829.30;129979;1260;129213;-65
2023/03/15 05:38:17;;;;;;;15.30;3.40;;;;;;;1.24;73.77;99833.63;129940;1260;115270;-66
2023/03/15 05:41:23;;;;;;;10.40;2.90;;;;;;;1.27;73.50;99841.48;130108;1260;114816;-65
2023/03/15 05:44:26;;;;;;;12.50;2.80;;;;;;;1.31;73.93;99848.27;130182;1259;113897;-64
2023/03/15 05:47:33;;;;;;;17.70;3.00;;;;;;;1.40;74.29;99857.08;130082;1254;113678;-65
2023/03/15 05:50:36;;;;;;;11.50;3.30;;;;;;;1.47;74.34;99858.70;131989;1254;127726;-66
2023/03/15 05:53:42;;;;;;;11.40;2.20;;;;;;;1.54;74.03;99862.60;129939;1260;114702;-65
2023/03/15 05:56:46;;;;;;;10.50;2.70;;;;;;;1.62;74.03;99867.04;130114;1257;114670;-66
2023/03/15 05:59:49;;;;;;;15.30;3.60;;;;;;;1.69;73.87;99873.05;131860;1254;114812;-67
2023/03/15 06:02:52;;;;;;;14.70;3.20;;;;;;;1.74;73.76;99874.00;131713;1257;114578;-66
2023/03/15 06:05:55;;;;;;;13.80;2.90;;;;;;;1.82;73.45;99884.95;131702;1254;115375;-69
2023/03/15 06:09:00;;;;;;;19.30;3.20;;;;;;;1.89;73.40;99891.33;131793;1254;114624;-66
2023/03/15 06:12:04;;;;;;;13.30;2.90;;;;;;;1.98;73.73;99894.67;131720;1258;113198;-66
2023/03/15 06:15:08;;;;;;;9.60;3.10;;;;;;;2.05;73.43;99897.17;131682;1260;114043;-66
2023/03/15 06:18:12;;;;;;;13.60;2.90;;;;;;;2.12;73.36;99895.09;131747;1253;113233;-65
2023/03/15 06:21:17;;;;;;;11.00;2.60;;;;;;;2.21;73.28;99903.17;128518;1260;127887;-65
2023/03/15 06:24:21;;;;;;;;;;;;;;;2.28;73.07;99908.64;128501;1260;113411;-67
2023/03/15 06:27:27;;;;;;;;;;;;;;;2.37;72.95;99905.27;128782;1259;113436;-65
2023/03/15 06:30:33;;;;;;;15.10;2.90;;;;;;;2.46;72.96;99913.52;128493;1255;113333;-66
2023/03/15 06:33:38;;;;;;;9.90;4.20;;;;;;;2.57;72.88;99918.75;128782;1254;113447;-66
2023/03/15 06:36:42;;;;;;;13.50;3.30;;;;;;;2.70;73.07;99921.63;128728;1258;127674;-64
2023/03/15 06:39:49;;;;;;;8.00;2.70;;;;;;;2.82;72.71;99922.94;128817;1258;114886;-67
2023/03/15 06:42:53;;;;;;;17.50;4.60;;;;;;;2.92;72.52;99919.18;131561;1257;114710;-65
2023/03/15 06:45:58;;;;;;;9.90;3.00;;;;;;;3.08;72.60;99924.43;131690;1254;113394;-64
2023/03/15 06:49:04;;;;;;;12.50;3.70;;;;;;;3.27;72.66;99922.54;128420;1258;113457;-66
2023/03/15 06:52:08;;;;;;;12.50;2.90;;;;;;;3.49;72.45;99921.96;128403;1260;127973;-65
2023/03/15 06:55:16;;;;;;;13.00;3.40;;;;;;;3.71;72.35;99929.15;128418;1261;114781;-65
2023/03/15 06:58:19;;;;;;;12.80;3.70;;;;;;;3.98;72.27;99931.77;131456;1263;113147;-66
2023/03/15 07:01:22;;;;;;;13.00;3.60;;;;;;;4.25;72.13;99937.36;131651;1254;115182;-67
2023/03/15 07:04:25;;;;;;;15.50;4.70;;;;;;;4.49;71.57;99943.19;131658;1254;114667;-68
2023/03/15 07:07:28;;;;;;;9.60;2.60;;;;;;;4.68;71.38;99945.61;131601;1255;114704;-67
2023/03/15 07:10:31;;;;;;;11.40;3.50;;;;;;;4.86;70.73;99946.13;131728;1254;114821;-66
2023/03/15 07:13:34;;;;;;;13.90;3.60;;;;;;;4.99;70.57;99947.83;131663;1253;114770;-66
2023/03/15 07:16:43;;;;;;;17.10;3.10;;;;;;;5.13;70.38;99952.84;128787;1254;114038;-66
2023/03/15 07:19:50;;;;;;;9.60;2.60;;;;;;;5.26;69.87;99957.21;131592;1254;114306;-68
2023/03/15 07:22:56;;;;;;;12.30;3.20;;;;;;;5.36;69.36;99963.27;131702;1255;128252;-65
2023/03/15 07:26:03;;;;;;;16.30;3.10;;;;;;;5.48;69.49;99970.30;129564;1257;116012;-69
2023/03/15 07:29:09;;;;;;;13.50;3.50;;;;;;;5.58;69.06;99972.80;131662;1254;115326;-69
2023/03/15 07:32:13;;;;;;;16.80;2.30;;;;;;;5.64;68.80;99980.02;128817;1255;113762;-65
2023/03/15 07:35:21;;;;;;;12.50;2.70;;;;;;;5.66;68.31;99981.04;129933;1253;114716;-68
2023/03/15 07:38:29;;;;;;;9.00;3.10;;;;;;;5.73;68.46;99985.73;131591;1254;127750;-68
2023/03/15 07:41:33;;;;;;;19.50;2.70;;;;;;;5.90;68.35;99991.89;131663;1254;114587;-66
2023/03/15 07:44:43;;;;;;;16.80;4.00;;;;;;;6.09;68.46;100000.10;128610;1260;115356;-66
2023/03/15 07:47:46;;;;;;;12.10;4.20;;;;;;;6.28;68.22;99997.82;131612;1254;114725;-66
2023/03/15 07:50:50;;;;;;;15.10;2.50;;;;;;;6.48;67.78;100002.25;131681;1255;114836;-66
2023/03/15 07:53:53;;;;;;;12.70;3.10;;;;;;;6.64;67.54;100008.55;131438;1254;127923;-67
2023/03/15 07:56:58;;;;;;;12.80;3.50;;;;;;;6.75;67.18;100010.46;128871;1254;114715;-66
2023/03/15 08:00:01;;;;;;;;;;;;;;;6.81;66.71;100011.29;131688;1257;113293;-68
2023/03/15 08:03:06;;;;;;;16.80;3.90;;;;;;;6.84;66.40;100012.42;131670;1254;114884;-66
2023/03/15 08:06:14;;;;;;;11.10;3.70;;;;;;;6.95;66.36;100007.36;128376;1254;113288;-65
2023/03/15 08:09:19;;;;;;;12.40;3.10;;;;;;;7.11;65.84;100011.53;128573;1254;127756;-67
2023/03/15 08:12:24;;;;;;;14.20;3.30;;;;;;;7.20;65.76;100012.98;128968;1254;114843;-66
2023/03/15 08:15:29;;;;;;;12.60;3.60;;;;;;;7.29;65.18;100020.75;128651;1253;113562;-65
2023/03/15 08:18:34;;;;;;;11.00;2.90;;;;;;;7.44;65.28;100025.87;128849;1254;113501;-66
2023/03/15 08:21:38;;;;;;;16.00;3.20;;;;;;;7.69;64.97;100031.23;131568;1254;113480;-66
2023/03/15 08:24:44;;;;;;;12.90;2.60;;;;;;;7.85;64.35;100028.96;128778;1254;127841;-66
2023/03/15 08:27:48;;;;;;;8.80;2.80;;;;;;;7.83;63.58;100026.90;131687;1254;114661;-67
2023/03/15 08:30:51;;;;;;;9.30;2.20;;;;;;;7.84;63.40;100034.49;131478;1258;113186;-65
2023/03/15 08:34:00;;;;;;;14.20;3.90;;;;;;;7.88;63.51;100032.71;128942;1254;113348;-65
2023/03/15 08:37:11;;;;;;;15.30;2.90;;;;;;;7.91;62.93;100030.83;128794;1257;115183;-68
2023/03/15 08:40:17;;;;;;;10.20;2.40;;;;;;;7.89;62.60;100031.64;128491;1254;127674;-66
2023/03/15 08:43:21;;;;;;;8.80;3.00;;;;;;;7.83;62.23;100039.89;131665;1254;115157;-65
2023/03/15 08:46:29;;;;;;;18.90;4.10;;;;;;;7.83;62.13;100048.59;128753;1254;114541;-66
2023/03/15 08:49:32;;;;;;;10.50;3.20;;;;;;;7.84;61.96;100052.11;131332;1258;113315;-67
2023/03/15 08:52:35;;;;;;;34.60;15.20;;;;;;;7.84;61.91;100053.70;131443;1257;114510;-69
2023/03/15 08:55:38;;;;;;;24.30;8.20;;;;;;;7.88;62.09;100063.85;131627;1254;114738;-68
2023/03/15 08:58:41;;;;;;;26.70;12.20;;;;;;;7.97;61.77;100066.87;131649;1254;114726;-64
2023/03/15 09:01:54;;;;;;;17.50;3.30;;;;;;;8.07;62.00;100071.05;128921;1254;114363;-65
2023/03/15 09:04:56;;;;;;;16.20;5.30;;;;;;;8.12;61.79;100072.99;131678;1253;114440;-65
2023/03/15 09:08:03;;;;;;;11.20;4.30;;;;;;;8.23;61.50;100078.54;128850;1254;113630;-65
2023/03/15 09:11:08;;;;;;;15.30;4.20;;;;;;;8.33;61.10;100081.67;128828;1257;127987;-66
2023/03/15 09:14:13;;;;;;;13.60;3.20;;;;;;;8.39;60.82;100076.79;128709;1257;114726;-66
2023/03/15 09:17:16;;;;;;;11.40;3.40;;;;;;;8.44;60.53;100079.44;130927;1257;113444;-66
2023/03/15 09:20:22;;;;;;;13.10;2.60;;;;;;;8.47;60.24;100079.82;128654;1254;114721;-65
2023/03/15 09:23:27;;;;;;;14.70;3.60;;;;;;;8.51;59.98;100080.39;128374;1254;113581;-67
2023/03/15 09:26:30;;;;;;;15.00;3.30;;;;;;;8.46;59.11;100083.44;131667;1254;128011;-69
2023/03/15 09:29:39;;;;;;;21.20;4.70;;;;;;;8.47;59.85;100087.48;128714;1254;114709;-68
2023/03/15 09:32:44;;;;;;;11.10;2.90;;;;;;;8.59;59.85;100083.76;129163;1253;114308;-66
2023/03/15 09:35:53;;;;;;;7.30;2.80;;;;;;;8.75;59.79;100078.27;128556;1262;114689;-69
2023/03/15 09:39:00;;;;;;;18.40;3.00;;;;;;;8.87;59.23;100076.98;128590;1254;114806;-66
2023/03/15 09:42:15;;;;;;;13.30;3.50;;;;;;;8.94;59.10;100078.09;128584;1254;127891;-65
2023/03/15 09:45:54;;;;;;;108.40;46.10;;;;;;;9.04;58.61;100081.57;128658;1257;114712;-65
2023/03/15 09:49:20;;;;;;;23.80;7.90;;;;;;;9.08;58.28;100079.38;131038;1263;114739;-66
2023/03/15 09:52:28;;;;;;;24.20;12.40;;;;;;;9.13;58.23;100082.57;127974;1262;114577;-66
2023/03/15 09:55:32;;;;;;;30.80;11.50;;;;;;;9.20;58.18;100084.53;130475;1263;114612;-68
2023/03/15 09:58:36;;;;;;;29.80;11.30;;;;;;;9.27;57.79;100084.90;128055;1267;128781;-66
2023/03/15 10:01:40;;;;;;;32.00;11.20;;;;;;;9.33;57.52;100080.73;131157;1262;114767;-66
2023/03/15 10:04:46;;;;;;;11.60;4.50;;;;;;;9.36;57.27;100083.23;130735;1263;114694;-66
2023/03/15 10:07:51;;;;;;;;;;;;;;;9.44;57.12;100079.67;127848;1267;114818;-66
2023/03/15 10:11:44;;;;;;;13.60;3.90;;;;;;;9.48;56.94;100080.17;131090;1262;114882;-66
2023/03/15 10:14:56;;;;;;;16.90;3.80;;;;;;;9.49;56.43;100082.08;130006;1269;129291;-67
2023/03/15 10:18:05;;;;;;;10.00;3.60;;;;;;;9.46;55.98;100084.91;127754;1270;114802;-69
2023/03/15 10:21:16;;;;;;;12.50;3.10;;;;;;;9.45;56.13;100085.70;130080;1273;114715;-68
2023/03/15 10:24:39;;;;;;;22.60;8.00;;;;;;;9.44;55.59;100080.36;127195;1264;114118;-65
2023/03/15 10:27:54;;;;;;;10.00;3.30;;;;;;;9.38;55.00;100075.82;130584;1267;114729;-68
2023/03/15 10:31:12;;;;;;;10.50;2.80;;;;;;;9.33;55.01;100079.11;130140;1263;128978;-65
2023/03/15 10:34:16;;;;;;;13.70;3.30;;;;;;;9.36;54.91;100070.80;128035;1264;115557;-67
2023/03/15 10:37:19;;;;;;;15.70;2.80;;;;;;;9.40;54.64;100073.05;130796;1267;114647;-65
2023/03/15 10:40:42;;;;;;;8.20;2.30;;;;;;;9.47;54.98;100072.01;127933;1267;114751;-64
2023/03/15 10:44:05;;;;;;;4.60;1.90;;;;;;;9.57;54.39;100077.80;127814;1264;114077;-65
2023/03/15 10:47:15;;;;;;;11.20;2.50;;;;;;;9.62;54.35;100083.27;130889;1260;128013;-65
2023/03/15 10:50:31;;;;;;;11.30;2.40;;;;;;;9.70;54.18;100084.60;127940;1253;114729;-65
2023/03/15 10:53:36;;;;;;;7.90;2.30;;;;;;;9.72;53.74;100086.50;128630;1253;113460;-65
2023/03/15 10:57:00;;;;;;;12.80;2.60;;;;;;;9.75;53.20;100086.54;131756;1257;114944;-66
2023/03/15 11:00:31;;;;;;;8.50;3.10;;;;;;;9.78;53.04;100090.14;131789;1253;114790;-66
2023/03/15 11:03:36;;;;;;;6.40;2.60;;;;;;;9.78;52.49;100091.39;129131;1257;128900;-65
2023/03/15 11:06:46;;;;;;;7.60;2.00;;;;;;;9.80;52.63;100097.91;131740;1253;115231;-65
2023/03/15 11:09:55;;;;;;;8.80;2.10;;;;;;;9.81;52.28;100092.83;131555;1256;114790;-67
2023/03/15 11:13:14;;;;;;;8.90;2.10;;;;;;;9.86;52.53;100095.27;131712;1253;114515;-65
2023/03/15 11:16:21;;;;;;;7.70;1.40;;;;;;;9.91;52.06;100094.68;131492;1254;114540;-67
2023/03/15 11:19:27;;;;;;;10.50;2.00;;;;;;;9.91;51.84;100093.27;128559;1259;129124;-64
2023/03/15 11:22:33;;;;;;;8.40;2.70;;;;;;;9.89;51.74;100091.21;128590;1253;114941;-65
2023/03/15 11:25:40;;;;;;;5.50;2.00;;;;;;;9.94;51.81;100086.66;128424;1257;113485;-65
2023/03/15 11:28:50;;;;;;;8.60;2.10;;;;;;;9.98;51.53;100079.88;131733;1253;113388;-66
2023/03/15 11:31:55;;;;;;;9.80;2.70;;;;;;;10.08;51.45;100080.80;131621;1253;114707;-65
2023/03/15 11:35:08;;;;;;;6.10;1.80;;;;;;;10.14;50.65;100084.40;129452;1253;128507;-66
2023/03/15 11:38:47;;;;;;;5.20;2.80;;;;;;;10.16;50.63;100087.89;129397;1262;114725;-66
2023/03/15 11:41:55;;;;;;;7.50;2.20;;;;;;;10.19;50.54;100088.26;128709;1257;114039;-66
2023/03/15 11:45:04;;;;;;;13.30;3.20;;;;;;;10.26;50.35;100092.02;131653;1254;114686;-67
2023/03/15 11:48:39;;;;;;;8.70;3.20;;;;;;;10.34;50.65;100090.52;131660;1253;114696;-69
2023/03/15 11:51:42;;;;;;;9.80;2.90;;;;;;;10.34;50.16;100086.05;130805;1263;128967;-66
2023/03/15 11:54:59;;;;;;;7.00;2.30;;;;;;;10.25;49.82;100090.64;127908;1264;115555;-66
2023/03/15 11:58:29;;;;;;;6.90;2.00;;;;;;;10.17;49.81;100088.71;127908;1267;114718;-66
2023/03/15 12:01:33;;;;;;;9.50;2.70;;;;;;;10.06;49.53;100090.54;130915;1264;114685;-66
2023/03/15 12:04:45;;;;;;;12.60;2.50;;;;;;;10.04;49.76;100095.82;130676;1263;114268;-65
2023/03/15 12:08:23;;;;;;;16.20;3.00;;;;;;;10.06;49.90;100095.86;127799;1263;127611;-67
2023/03/15 12:11:26;;;;;;;6.70;2.10;;;;;;;10.12;49.96;100089.69;130859;1262;114790;-66
2023/03/15 12:14:35;;;;;;;8.20;1.90;;;;;;;10.13;49.68;100090.50;130834;1264;114808;-68
2023/03/15 12:17:43;;;;;;;9.40;2.50;;;;;;;10.15;49.96;100094.86;128719;1264;114250;-69
2023/03/15 12:21:08;;;;;;;7.80;3.10;;;;;;;10.22;49.93;100092.77;130870;1263;115518;-65
2023/03/15 12:24:30;;;;;;;10.10;3.40;;;;;;;10.22;49.41;100093.45;130911;1264;128863;-67
2023/03/15 12:27:37;;;;;;;5.70;1.80;;;;;;;10.23;49.81;100092.33;130453;1253;114905;-65
2023/03/15 12:30:44;;;;;;;9.50;2.70;;;;;;;10.25;49.75;100084.88;128623;1259;113576;-66
2023/03/15 12:33:57;;;;;;;11.00;2.60;;;;;;;10.34;49.50;100084.11;128671;1260;114732;-66
2023/03/15 12:37:18;;;;;;;13.00;2.70;;;;;;;10.40;49.41;100085.96;132402;1255;113295;-68
2023/03/15 12:40:27;;;;;;;10.90;2.40;;;;;;;10.34;48.82;100085.70;131623;1256;127780;-68
2023/03/15 12:43:47;;;;;;;7.00;2.20;;;;;;;10.26;49.18;100089.51;130621;1260;114062;-66
2023/03/15 12:46:50;;;;;;;9.80;2.00;;;;;;;10.15;48.54;100088.13;132005;1257;114698;-64
2023/03/15 12:49:57;;;;;;;7.80;2.60;;;;;;;10.05;48.87;100090.95;128749;1256;114453;-65
2023/03/15 12:53:01;;;;;;;;;;;;;;;9.99;47.90;100094.64;128322;1264;114463;-65
2023/03/15 12:56:28;;;;;;;6.20;2.50;;;;;;;9.95;48.42;100095.55;128667;1256;127848;-65
2023/03/15 12:59:35;;;;;;;9.40;2.30;;;;;;;10.01;48.36;100103.06;129125;1259;115992;-66
2023/03/15 13:02:52;;;;;;;6.30;2.20;;;;;;;10.03;47.86;100102.81;128689;1261;114061;-65
2023/03/15 13:06:33;;;;;;;8.50;3.00;;;;;;;10.04;48.14;100103.09;131480;1257;114732;-65
2023/03/15 13:10:20;;;;;;;9.10;3.20;;;;;;;10.02;47.65;100107.34;128501;1256;114738;-67
2023/03/15 13:14:04;;;;;;;9.90;2.50;;;;;;;9.97;47.74;100111.67;128297;1277;127901;-66
2023/03/15 13:17:30;;;;;;;7.30;1.80;;;;;;;9.90;47.49;100107.89;127892;1267;114917;-65
2023/03/15 13:21:08;;;;;;;10.50;2.50;;;;;;;9.88;47.84;100118.88;127971;1265;113339;-64
2023/03/15 13:24:47;;;;;;;6.60;2.20;;;;;;;9.82;47.21;100118.63;127933;1262;429169;-65
2023/03/15 13:27:54;;;;;;;10.40;2.60;;;;;;;9.68;46.95;100117.39;128067;1267;114482;-69
2023/03/15 13:30:58;;;;;;;9.50;3.60;;;;;;;9.57;47.35;100125.73;130441;1266;127935;-70
2023/03/15 13:34:15;;;;;;;7.90;2.40;;;;;;;9.51;47.22;100125.48;130302;1268;116526;-69
2023/03/15 13:37:27;;;;;;;12.60;2.70;;;;;;;9.42;47.01;100125.20;130398;1267;114675;-70
2023/03/15 13:40:30;;;;;;;9.00;2.60;;;;;;;9.34;47.26;100129.00;130775;1267;114711;-68
2023/03/15 13:43:36;;;;;;;10.00;3.30;;;;;;;9.31;47.66;100131.44;130500;1267;113292;-73
2023/03/15 13:46:39;;;;;;;7.90;2.80;;;;;;;9.32;47.75;100134.80;130454;1267;127683;-72
2023/03/15 13:49:43;;;;;;;9.80;4.30;;;;;;;9.25;47.21;100133.67;130491;1267;117090;-68
2023/03/15 13:52:47;;;;;;;9.10;3.40;;;;;;;9.20;47.62;100143.52;130541;1267;114915;-67
2023/03/15 13:55:53;;;;;;;6.40;3.00;;;;;;;9.18;47.69;100141.46;130785;1263;114606;-68
2023/03/15 13:59:03;;;;;;;8.40;2.90;;;;;;;9.20;47.88;100147.96;127768;1267;114082;-64
2023/03/15 14:02:13;;;;;;;6.30;2.80;;;;;;;9.21;47.81;100145.98;127549;1267;127961;-65
2023/03/15 14:05:26;;;;;;;12.30;5.20;;;;;;;9.19;47.81;100152.68;128318;1256;115346;-67
2023/03/15 14:08:35;;;;;;;14.50;4.80;;;;;;;9.21;48.05;100160.20;131521;1259;114774;-70
2023/03/15 14:11:39;;;;;;;10.10;3.40;;;;;;;9.26;47.84;100161.79;131542;1255;114828;-67
2023/03/15 14:14:54;;;;;;;12.00;2.70;;;;;;;9.33;48.00;100159.86;128623;1255;114051;-66
2023/03/15 14:18:16;;;;;;;9.10;3.30;;;;;;;9.37;47.86;100165.56;128650;1256;128834;-65
2023/03/15 14:21:30;;;;;;;41.40;18.60;;;;;;;9.41;48.17;100171.44;128623;1261;115184;-66
2023/03/15 14:24:38;;;;;;;10.30;5.30;;;;;;;9.39;48.10;100170.25;131514;1256;114540;-69